Time;durP1;ratioP1;P1;durP2;ratioP2;P2;SDS_P1;SDS_P2;PMS_P1;PMS_P2;Temp;Humidity;BMP_temperature;BMP_pressure;BME280_temperature;BME280_humidity;BME280_pressure;Samples;Min_cycle;Max_cycle;Signal;HPM_P1;HPM_P2
2022/03/18 00:01:17;;;;;;;40.25;21.97;;;;;;;4.05;47.85;102204.86;2146556;82;31026;-65
2022/03/18 00:04:19;;;;;;;47.78;21.80;;;;;;;3.99;48.09;102203.48;2145982;82;33840;-66
2022/03/18 00:07:23;;;;;;;42.78;21.73;;;;;;;3.91;48.15;102200.30;2146038;83;30736;-60
2022/03/18 00:10:26;;;;;;;43.87;20.90;;;;;;;3.88;48.23;102202.95;2138215;82;27755;-60
2022/03/18 00:13:29;;;;;;;48.60;22.45;;;;;;;3.84;48.37;102209.09;2145707;83;29380;-65
2022/03/18 00:16:31;;;;;;;44.00;22.20;;;;;;;3.80;48.33;102206.86;2145826;83;31748;-61
2022/03/18 00:19:35;;;;;;;38.88;21.85;;;;;;;3.77;48.37;102209.48;2146256;82;33841;-62
2022/03/18 00:22:37;;;;;;;45.28;24.07;;;;;;;3.74;48.41;102212.09;2142483;82;29342;-61
2022/03/18 00:25:40;;;;;;;45.30;22.25;;;;;;;3.72;48.47;102217.81;2095836;84;27748;-62
2022/03/18 00:28:43;;;;;;;42.55;22.25;;;;;;;3.69;48.63;102220.42;2142927;83;29342;-66
2022/03/18 00:31:45;;;;;;;37.25;21.80;;;;;;;3.67;48.59;102222.63;2146351;82;31081;-62
2022/03/18 00:34:47;;;;;;;42.98;23.27;;;;;;;3.65;48.74;102224.82;2146400;83;33004;-62
2022/03/18 00:37:53;;;;;;;44.23;22.82;;;;;;;3.63;48.66;102222.58;2146056;83;30238;-61
2022/03/18 00:40:56;;;;;;;46.98;22.67;;;;;;;3.63;48.78;102227.88;2143662;83;27733;-63
2022/03/18 00:43:59;;;;;;;41.15;21.73;;;;;;;3.59;48.89;102227.39;2110193;83;29406;-62
2022/03/18 00:47:01;;;;;;;43.17;23.02;;;;;;;3.59;49.01;102226.52;2108058;83;32229;-66
2022/03/18 00:53:25;;;;;;;52.93;24.87;;;;;;;3.57;49.19;102219.86;2145498;82;29683;-59
2022/03/18 00:56:27;;;;;;;40.73;22.48;;;;;;;3.53;49.26;102224.70;2146545;82;28230;-64
2022/03/18 00:59:29;;;;;;;40.15;22.13;;;;;;;3.49;49.49;102221.10;2146361;82;28755;-60
2022/03/18 01:02:31;;;;;;;44.55;23.50;;;;;;;3.46;49.38;102221.52;2116107;82;30748;-64
2022/03/18 01:05:34;;;;;;;43.13;23.67;;;;;;;3.42;49.71;102223.25;2131702;82;34345;-67
2022/03/18 01:08:36;;;;;;;47.33;24.55;;;;;;;3.39;49.76;102222.34;2136702;83;29380;-68
2022/03/18 01:11:37;;;;;;;40.95;22.45;;;;;;;3.34;49.86;102226.23;2137672;83;27699;-66
2022/03/18 01:14:39;;;;;;;41.48;23.38;;;;;;;3.29;49.91;102227.51;2137354;83;30016;-67
2022/03/18 01:17:41;;;;;;;37.50;21.85;;;;;;;3.26;49.93;102229.24;2136896;83;31094;-62
2022/03/18 01:20:45;;;;;;;43.13;24.07;;;;;;;3.23;50.08;102234.05;2137433;83;33372;-68
2022/03/18 01:23:47;;;;;;;43.00;22.20;;;;;;;3.22;50.09;102236.69;2122100;83;29865;-64
2022/03/18 01:26:49;;;;;;;48.00;23.98;;;;;;;3.21;50.24;102241.53;2093662;85;27624;-71
2022/03/18 01:29:51;;;;;;;42.40;22.77;;;;;;;3.17;50.20;102236.19;2093908;84;29391;-64
2022/03/18 01:32:53;;;;;;;43.50;23.77;;;;;;;3.16;50.25;102240.16;2093523;85;30809;-65
2022/03/18 01:35:55;;;;;;;43.83;21.60;;;;;;;3.13;50.29;102238.78;2093556;84;34152;-70
2022/03/18 01:38:57;;;;;;;49.25;23.42;;;;;;;3.10;50.32;102239.65;2083713;84;30428;-68
2022/03/18 01:41:59;;;;;;;48.60;24.05;;;;;;;3.06;50.39;102245.77;2133241;83;27641;-59
2022/03/18 01:45:01;;;;;;;46.73;22.52;;;;;;;3.03;50.44;102251.02;2143122;82;29063;-68
2022/03/18 01:48:04;;;;;;;46.65;23.25;;;;;;;3.00;50.54;102253.61;2153634;82;30473;-63
2022/03/18 01:51:07;;;;;;;48.20;23.05;;;;;;;2.95;50.47;102255.33;2130613;83;33841;-61
2022/03/18 01:57:30;;;;;;;50.12;24.43;;;;;;;2.88;50.66;102255.23;2130869;83;28280;-62
2022/03/18 02:00:32;;;;;;;42.15;22.82;;;;;;;2.85;50.76;102254.31;2153447;82;28649;-66
2022/03/18 02:03:36;;;;;;;46.40;22.32;;;;;;;2.79;50.94;102268.35;2137803;83;31967;-60
2022/03/18 02:06:38;;;;;;;40.43;22.22;;;;;;;2.73;50.87;102264.28;2119757;83;33148;-70
2022/03/18 02:09:41;;;;;;;47.20;23.10;;;;;;;2.70;51.01;102266.88;2103666;84;29997;-61
2022/03/18 02:12:43;;;;;;;46.98;24.07;;;;;;;2.66;50.90;102263.30;2112991;83;27607;-59
2022/03/18 02:15:44;;;;;;;43.63;22.52;;;;;;;2.63;50.98;102261.05;2112465;84;29895;-59
2022/03/18 02:18:46;;;;;;;47.15;25.25;;;;;;;2.58;51.11;102263.60;2112441;84;32389;-60
2022/03/18 02:21:50;;;;;;;45.35;22.85;;;;;;;2.53;51.01;102267.95;2132582;83;34210;-61
2022/03/18 02:24:54;;;;;;;42.90;24.87;;;;;;;2.50;51.02;102276.72;2145894;81;29401;-70
2022/03/18 02:28:00;;;;;;;41.70;22.85;;;;;;;2.48;50.97;102280.21;2146147;82;27816;-68
2022/03/18 02:31:02;;;;;;;44.35;23.02;;;;;;;2.44;51.00;102277.96;2145676;82;28642;-60
2022/03/18 02:34:04;;;;;;;50.15;24.92;;;;;;;2.41;51.01;102288.48;2146210;82;31888;-61
2022/03/18 02:37:08;;;;;;;42.25;21.80;;;;;;;2.36;50.98;102284.86;2145164;83;33581;-60
2022/03/18 02:40:11;;;;;;;42.03;22.32;;;;;;;2.33;51.12;102292.73;2146199;82;29351;-60
2022/03/18 02:43:13;;;;;;;45.40;23.45;;;;;;;2.28;50.87;102292.67;2146126;83;27669;-60
2022/03/18 02:46:15;;;;;;;43.40;22.60;;;;;;;2.25;50.93;102293.52;2146096;83;29915;-65
2022/03/18 02:49:19;;;;;;;43.15;22.32;;;;;;;2.23;50.88;102290.40;2146531;82;31987;-62
2022/03/18 02:52:21;;;;;;;41.13;22.32;;;;;;;2.19;50.91;102290.75;2114629;83;34181;-59
2022/03/18 02:55:24;;;;;;;42.48;21.52;;;;;;;2.17;50.96;102292.92;2115006;82;29685;-60
2022/03/18 02:58:26;;;;;;;42.85;22.17;;;;;;;2.13;50.94;102293.31;2113201;83;27671;-59
2022/03/18 03:01:30;;;;;;;41.95;21.15;;;;;;;2.09;50.99;102295.44;2112629;84;29903;-62
2022/03/18 03:04:32;;;;;;;44.03;22.13;;;;;;;2.06;51.07;102308.59;2113688;83;31040;-73
2022/03/18 03:10:55;;;;;;;41.85;20.75;;;;;;;1.97;51.07;102314.19;2142719;83;29746;-60
2022/03/18 03:13:57;;;;;;;43.25;20.75;;;;;;;1.93;51.11;102312.34;2142983;83;27697;-59
2022/03/18 03:17:00;;;;;;;37.90;21.15;;;;;;;1.89;51.16;102313.13;2142573;83;30026;-58
2022/03/18 03:20:03;;;;;;;37.88;20.37;;;;;;;1.88;51.22;102311.80;2131758;83;30467;-60
2022/03/18 03:23:05;;;;;;;45.20;22.00;;;;;;;1.83;51.29;102322.25;2109525;84;33812;-60
2022/03/18 03:26:07;;;;;;;44.77;21.20;;;;;;;1.77;51.34;102324.80;2109277;83;30534;-62
2022/03/18 03:29:10;;;;;;;45.10;21.73;;;;;;;1.74;51.28;102331.34;2109511;83;27689;-59
2022/03/18 03:32:12;;;;;;;75.83;42.75;;;;;;;1.70;51.32;102332.13;2109622;84;29569;-60
2022/03/18 03:35:15;;;;;;;39.83;20.50;;;;;;;1.65;51.32;102334.69;2125184;83;32365;-75
2022/03/18 03:38:17;;;;;;;35.28;18.65;;;;;;;1.63;51.32;102340.36;2142861;83;33810;-64
2022/03/18 03:41:21;;;;;;;36.15;20.70;;;;;;;1.61;51.43;102347.36;2142656;83;31461;-60
2022/03/18 03:44:23;;;;;;;39.23;20.32;;;;;;;1.57;51.51;102350.82;2142765;83;27757;-61
2022/03/18 03:47:25;;;;;;;45.65;20.88;;;;;;;1.53;51.51;102339.72;2142921;83;30035;-60
2022/03/18 03:50:29;;;;;;;42.53;21.17;;;;;;;1.51;51.59;102344.95;2121087;83;32049;-62
2022/03/18 03:53:31;;;;;;;43.50;19.70;;;;;;;1.48;51.48;102344.47;2109250;84;33774;-60
2022/03/18 03:56:34;;;;;;;40.75;20.00;;;;;;;1.47;51.48;102351.05;2109572;83;30478;-64
2022/03/18 03:59:36;;;;;;;39.15;20.62;;;;;;;1.45;51.41;102360.25;2109664;83;27521;-61
2022/03/18 04:02:39;;;;;;;37.08;19.07;;;;;;;1.42;51.44;102363.26;2117166;83;28649;-59
2022/03/18 04:05:41;;;;;;;35.68;19.67;;;;;;;1.39;51.38;102360.13;2145535;82;31711;-61
2022/03/18 04:08:44;;;;;;;37.30;19.42;;;;;;;1.36;51.40;102364.89;2138785;82;35165;-62
2022/03/18 04:11:47;;;;;;;36.70;19.50;;;;;;;1.38;51.43;102374.60;2106077;84;30535;-66
2022/03/18 04:14:51;;;;;;;31.87;19.02;;;;;;;1.34;51.37;102370.56;2148084;82;27704;-60
2022/03/18 04:17:55;;;;;;;35.98;18.75;;;;;;;1.32;51.42;102370.99;2137443;82;30193;-59
2022/03/18 04:20:58;;;;;;;28.42;15.18;;;;;;;1.29;51.58;102373.97;2150785;82;32285;-60
2022/03/18 04:24:04;;;;;;;47.53;29.18;;;;;;;1.26;51.61;102378.77;2169253;82;33603;-59
2022/03/18 04:27:06;;;;;;;42.30;22.32;;;;;;;1.23;51.72;102376.49;2169276;82;29986;-61
2022/03/18 04:30:12;;;;;;;39.92;20.20;;;;;;;1.16;51.81;102382.94;2125895;82;27715;-60
2022/03/18 04:33:15;;;;;;;40.40;20.65;;;;;;;1.11;51.92;102388.53;2115262;82;28697;-60
2022/03/18 04:36:18;;;;;;;44.15;21.25;;;;;;;1.07;51.89;102391.98;2112993;83;31455;-62
2022/03/18 04:39:20;;;;;;;38.65;20.37;;;;;;;1.02;52.00;102393.61;2113161;83;34189;-63
2022/03/18 04:42:23;;;;;;;37.17;19.20;;;;;;;0.96;52.04;102394.36;2141519;82;29462;-60
2022/03/18 04:45:26;;;;;;;42.85;20.55;;;;;;;0.92;52.04;102391.17;2142134;82;27698;-62
2022/03/18 04:48:28;;;;;;;43.15;19.65;;;;;;;0.88;52.08;102407.36;2145642;83;28697;-60
2022/03/18 04:51:30;;;;;;;40.67;19.98;;;;;;;0.86;52.10;102396.28;2145696;82;30826;-59
2022/03/18 04:54:32;;;;;;;36.50;18.25;;;;;;;0.84;52.16;102412.50;2146350;82;33719;-59
2022/03/18 04:57:35;;;;;;;44.20;23.10;;;;;;;0.83;52.34;102421.30;2140044;82;30661;-60
2022/03/18 05:00:38;;;;;;;41.48;23.67;;;;;;;0.81;52.19;102425.20;2106127;84;27642;-59
2022/03/18 05:03:46;;;;;;;36.48;19.48;;;;;;;0.82;52.21;102428.75;2106490;83;29493;-60
2022/03/18 05:06:49;;;;;;;35.35;19.12;;;;;;;0.81;52.19;102433.11;2113201;83;31822;-59
2022/03/18 05:09:51;;;;;;;40.80;19.80;;;;;;;0.81;52.33;102431.80;2113169;84;33062;-61
2022/03/18 05:12:54;;;;;;;38.30;19.95;;;;;;;0.80;52.30;102432.65;2126963;82;30726;-59
2022/03/18 05:15:57;;;;;;;39.80;22.00;;;;;;;0.81;52.26;102433.56;2137110;83;27675;-61
2022/03/18 05:18:59;;;;;;;43.28;22.37;;;;;;;0.81;52.41;102434.88;2137111;83;28687;-60
2022/03/18 05:22:03;;;;;;;49.67;25.25;;;;;;;0.81;52.51;102441.47;2136781;83;31151;-60
2022/03/18 05:25:07;;;;;;;45.05;23.10;;;;;;;0.82;52.52;102437.98;2137111;83;32974;-61
2022/03/18 05:28:10;;;;;;;49.65;24.77;;;;;;;0.83;52.78;102445.05;2103244;83;29354;-60
2022/03/18 05:31:12;;;;;;;44.38;23.30;;;;;;;0.82;52.64;102442.82;2114011;82;27587;-69
2022/03/18 05:34:19;;;;;;;36.63;21.97;;;;;;;0.81;52.71;102438.84;2113626;84;29504;-62
2022/03/18 05:37:21;;;;;;;45.45;22.35;;;;;;;0.81;52.74;102446.31;2113314;83;31033;-60
2022/03/18 05:40:24;;;;;;;40.83;20.62;;;;;;;0.83;52.65;102441.09;2112993;83;33044;-60
2022/03/18 05:43:31;;;;;;;39.33;21.20;;;;;;;0.87;52.66;102449.52;2159650;82;29347;-69
2022/03/18 05:46:37;;;;;;;40.88;19.30;;;;;;;0.89;52.67;102450.05;2169711;82;27816;-59
2022/03/18 05:49:40;;;;;;;39.42;21.75;;;;;;;0.91;52.66;102454.91;2169394;82;29385;-60
2022/03/18 05:52:46;;;;;;;46.77;24.82;;;;;;;0.95;52.71;102462.50;2169435;82;31956;-68
2022/03/18 05:59:11;;;;;;;34.50;19.27;;;;;;;1.03;52.65;102478.53;2130550;83;30534;-60
2022/03/18 06:02:13;;;;;;;44.98;20.43;;;;;;;1.06;52.62;102483.45;2153157;82;27702;-60
2022/03/18 06:05:17;;;;;;;51.05;23.67;;;;;;;1.12;52.66;102488.43;2137443;82;29489;-64
2022/03/18 06:11:49;;;;;;;34.58;20.30;;;;;;;1.22;52.64;102497.03;2137750;83;34378;-70
2022/03/18 06:14:52;;;;;;;39.60;19.77;;;;;;;1.29;52.65;102493.70;2138616;83;30568;-59
2022/03/18 06:17:58;;;;;;;37.88;20.50;;;;;;;1.39;52.53;102494.82;2139024;83;27906;-73
2022/03/18 06:21:06;;;;;;;38.08;19.92;;;;;;;1.46;52.40;102498.50;2138859;83;29473;-77
2022/03/18 06:24:21;;;;;;;41.80;21.27;;;;;;;1.53;52.43;102503.05;2139154;83;31029;-69
2022/03/18 06:27:37;;;;;;;36.17;19.25;;;;;;;1.62;52.26;102506.34;2108136;83;33041;-69
2022/03/18 06:30:45;;;;;;;36.00;19.30;;;;;;;1.70;52.22;102510.06;2109601;83;29721;-59
2022/03/18 06:33:48;;;;;;;41.25;20.02;;;;;;;1.81;52.14;102515.16;2109648;83;27915;-60
2022/03/18 06:36:57;;;;;;;47.58;20.60;;;;;;;1.90;52.04;102521.08;2144266;82;28711;-78
2022/03/18 06:39:59;;;;;;;42.78;19.42;;;;;;;2.02;51.98;102520.88;2143108;83;31040;-75
2022/03/18 06:43:03;;;;;;;38.45;19.62;;;;;;;2.15;51.58;102531.30;2142702;82;33617;-67
2022/03/18 06:46:05;;;;;;;40.85;19.37;;;;;;;2.24;51.38;102524.87;2143078;82;29974;-59
2022/03/18 06:49:08;;;;;;;92.53;42.00;;;;;;;2.33;51.34;102526.40;2143066;82;27797;-58
2022/03/18 06:52:10;;;;;;;50.17;24.55;;;;;;;2.45;51.21;102535.02;2110056;83;29028;-64
2022/03/18 06:55:14;;;;;;;39.00;19.73;;;;;;;2.62;51.17;102529.17;2102623;84;31012;-74
2022/03/18 06:58:16;;;;;;;34.90;19.75;;;;;;;2.80;50.94;102542.77;2109575;84;32950;-59
2022/03/18 07:01:20;;;;;;;37.73;19.85;;;;;;;2.98;50.78;102543.53;2109811;83;29186;-60
2022/03/18 07:04:23;;;;;;;39.50;19.82;;;;;;;3.18;50.68;102542.55;2109360;84;27835;-59
2022/03/18 07:07:25;;;;;;;42.78;20.40;;;;;;;3.38;50.42;102546.42;2145616;82;28191;-64
2022/03/18 07:10:28;;;;;;;37.60;20.08;;;;;;;3.64;50.08;102557.45;2146339;82;31755;-64
2022/03/18 07:13:31;;;;;;;35.50;19.77;;;;;;;3.91;49.91;102560.05;2145766;82;33811;-65
2022/03/18 07:19:53;;;;;;;35.55;19.27;;;;;;;4.47;48.45;102578.94;2151901;82;28161;-59
2022/03/18 07:23:08;;;;;;;36.58;17.85;;;;;;;4.89;48.47;102583.42;2114902;82;29515;-58
2022/03/18 07:26:11;;;;;;;35.40;18.37;;;;;;;5.40;47.63;102577.27;2143015;82;31839;-59
2022/03/18 07:29:14;;;;;;;33.90;19.15;;;;;;;5.90;47.65;102573.66;2145497;83;32951;-60
2022/03/18 07:32:17;;;;;;;36.83;18.42;;;;;;;6.39;47.31;102573.96;2145709;83;29251;-60
2022/03/18 07:35:20;;;;;;;31.87;18.35;;;;;;;6.73;46.15;102570.98;2139720;83;27728;-60
2022/03/18 07:38:21;;;;;;;33.65;18.35;;;;;;;6.96;45.86;102579.95;2139341;83;29678;-61
2022/03/18 07:41:24;;;;;;;31.42;18.32;;;;;;;7.21;45.79;102585.30;2138593;83;31693;-60
2022/03/18 07:44:25;;;;;;;38.85;21.20;;;;;;;7.49;45.64;102578.68;2139438;83;32963;-60
2022/03/18 07:47:27;;;;;;;31.37;17.70;;;;;;;7.73;44.22;102595.13;2140087;82;30053;-60
2022/03/18 07:50:33;;;;;;;30.02;18.27;;;;;;;7.71;43.87;102590.23;2139760;83;27641;-60
2022/03/18 07:53:35;;;;;;;32.63;17.80;;;;;;;7.72;42.91;102593.77;2139699;83;28645;-59
2022/03/18 07:56:37;;;;;;;35.85;19.00;;;;;;;7.63;43.36;102599.13;2139367;83;32383;-60
2022/03/18 07:59:39;;;;;;;33.53;19.07;;;;;;;7.63;43.30;102601.33;2122485;83;34142;-61
2022/03/18 08:02:42;;;;;;;37.98;19.42;;;;;;;7.75;43.64;102608.45;2112986;83;30443;-67
2022/03/18 08:05:46;;;;;;;30.95;18.57;;;;;;;8.00;43.01;102609.31;2128140;81;28068;-61
2022/03/18 08:08:48;;;;;;;26.90;17.42;;;;;;;8.42;43.13;102609.68;2153449;82;28725;-60
2022/03/18 08:11:50;;;;;;;35.15;18.10;;;;;;;8.74;42.71;102605.56;2131118;83;31425;-60
2022/03/18 08:14:53;;;;;;;32.35;18.12;;;;;;;9.15;41.69;102606.23;2169429;81;34053;-61
2022/03/18 08:17:56;;;;;;;34.38;17.60;;;;;;;9.37;41.31;102606.96;2147820;82;30253;-60
2022/03/18 08:20:59;;;;;;;28.65;17.37;;;;;;;9.75;40.60;102607.58;2151081;82;27947;-60
2022/03/18 08:24:03;;;;;;;34.25;18.85;;;;;;;10.00;40.86;102610.01;2147599;82;28659;-61
2022/03/18 08:27:06;;;;;;;29.52;18.35;;;;;;;10.16;39.84;102607.61;2147234;82;31046;-63
2022/03/18 08:30:11;;;;;;;33.53;19.37;;;;;;;10.27;39.42;102612.86;2147823;82;33108;-60
2022/03/18 08:33:13;;;;;;;31.70;18.20;;;;;;;10.38;39.28;102619.47;2133417;82;29382;-60
2022/03/18 08:36:15;;;;;;;34.67;18.57;;;;;;;10.57;39.47;102620.13;2113535;83;27694;-60
2022/03/18 08:39:18;;;;;;;37.95;20.40;;;;;;;10.60;39.43;102629.48;2113324;84;28534;-60
2022/03/18 08:42:20;;;;;;;30.97;18.75;;;;;;;10.30;37.75;102628.90;2113455;84;32211;-60
2022/03/18 08:45:24;;;;;;;30.82;18.73;;;;;;;9.91;38.59;102637.76;2132516;82;33627;-60
2022/03/18 08:48:26;;;;;;;36.53;20.25;;;;;;;9.71;38.92;102640.16;2131078;83;29977;-60
2022/03/18 08:51:28;;;;;;;33.60;20.35;;;;;;;9.61;38.99;102643.81;2169644;82;27679;-60
2022/03/18 08:54:30;;;;;;;31.75;18.80;;;;;;;9.51;37.90;102645.66;2169559;82;29964;-60
2022/03/18 08:57:35;;;;;;;34.30;18.92;;;;;;;9.43;38.79;102653.75;2169825;82;31869;-61
2022/03/18 09:00:38;;;;;;;24.47;14.53;;;;;;;9.41;38.93;102653.33;2169898;81;33794;-60
2022/03/18 09:03:41;;;;;;;36.28;20.80;;;;;;;9.46;38.44;102667.55;2170018;82;29560;-60
2022/03/18 09:06:43;;;;;;;35.03;19.57;;;;;;;9.41;38.49;102658.22;2148309;82;27835;-61
2022/03/18 09:09:45;;;;;;;30.02;19.50;;;;;;;9.40;38.12;102663.59;2150014;82;29966;-66
2022/03/18 09:12:58;;;;;;;34.00;19.67;;;;;;;9.46;38.09;102658.64;2130944;83;31050;-63
2022/03/18 09:15:58;;;;;;;37.13;19.75;;;;;;;9.43;37.75;102665.78;2094016;83;33853;-62
2022/03/18 09:19:00;;;;;;;34.13;19.70;;;;;;;9.40;37.89;102667.14;2112487;83;30482;-60
2022/03/18 09:22:03;;;;;;;40.73;20.35;;;;;;;9.38;38.00;102674.75;2138191;82;27644;-64
2022/03/18 09:25:06;;;;;;;36.20;20.82;;;;;;;9.40;37.25;102681.85;2142847;82;28708;-66
2022/03/18 09:28:08;;;;;;;34.40;19.52;;;;;;;9.21;37.39;102686.44;2131051;83;31835;-60
2022/03/18 09:31:10;;;;;;;34.43;20.12;;;;;;;9.15;37.93;102685.12;2126004;82;33421;-60
2022/03/18 09:34:14;;;;;;;34.45;20.20;;;;;;;9.06;37.66;102682.50;2140297;81;31376;-60
2022/03/18 09:37:17;;;;;;;35.10;20.17;;;;;;;8.96;37.86;102686.53;2131071;83;27693;-63
2022/03/18 09:40:19;;;;;;;40.83;21.02;;;;;;;8.90;37.99;102683.00;2153253;82;29632;-60
2022/03/18 09:43:21;;;;;;;33.70;21.00;;;;;;;8.95;38.19;102684.75;2136719;83;31896;-61
2022/03/18 09:46:24;;;;;;;37.45;21.77;;;;;;;8.96;37.44;102685.66;2135957;83;34274;-64
2022/03/18 09:49:26;;;;;;;36.17;22.15;;;;;;;8.95;37.70;102683.88;2136719;83;30305;-61
2022/03/18 09:52:28;;;;;;;38.48;21.93;;;;;;;8.91;36.96;102687.45;2113401;83;27679;-60
2022/03/18 09:55:33;;;;;;;38.17;20.77;;;;;;;8.78;37.42;102685.27;2139019;82;29857;-60
2022/03/18 09:58:35;;;;;;;41.55;21.55;;;;;;;8.79;37.77;102687.05;2169963;82;30716;-61
2022/03/18 10:01:39;;;;;;;35.88;21.07;;;;;;;8.84;37.77;102694.61;2169902;81;33098;-61
2022/03/18 10:04:59;;;;;;;44.77;22.93;;;;;;;8.83;37.09;102694.17;2170263;82;29335;-61
2022/03/18 10:08:01;;;;;;;40.90;19.85;;;;;;;8.81;37.33;102703.97;2166499;81;27689;-61
2022/03/18 10:11:28;;;;;;;36.73;20.25;;;;;;;8.82;37.19;102707.09;2126473;83;29423;-64
2022/03/18 10:14:28;;;;;;;30.17;20.20;;;;;;;8.89;37.82;102711.53;2125468;83;31019;-60
2022/03/18 10:17:46;;;;;;;36.95;18.70;;;;;;;8.92;36.74;102719.55;2142206;83;33667;-60
2022/03/18 10:20:50;;;;;;;38.38;20.95;;;;;;;8.87;36.13;102724.02;2137488;83;29729;-61
2022/03/18 10:24:09;;;;;;;30.62;20.00;;;;;;;8.87;36.76;102722.67;2142509;82;27719;-64
2022/03/18 10:27:20;;;;;;;30.37;18.57;;;;;;;8.93;36.79;102721.77;2106510;84;28681;-61
2022/03/18 10:30:23;;;;;;;31.42;19.45;;;;;;;8.99;36.26;102724.42;2106239;84;31009;-63
2022/03/18 10:37:16;;;;;;;33.28;19.05;;;;;;;8.93;36.14;102717.75;2109135;83;30522;-61
2022/03/18 10:40:36;;;;;;;31.15;18.95;;;;;;;8.88;35.36;102720.45;2109437;83;28071;-61
2022/03/18 10:43:55;;;;;;;33.08;19.37;;;;;;;8.94;36.50;102719.53;2109060;83;29521;-60
2022/03/18 10:46:57;;;;;;;30.50;18.25;;;;;;;8.97;36.17;102716.85;2109039;83;31907;-61
2022/03/18 10:50:14;;;;;;;29.67;19.20;;;;;;;9.01;35.96;102721.30;2109564;82;33044;-62
2022/03/18 10:53:19;;;;;;;30.48;18.95;;;;;;;9.04;36.32;102717.71;2109458;83;29332;-61
2022/03/18 10:56:21;;;;;;;32.20;18.73;;;;;;;9.11;36.20;102724.36;2109703;84;27536;-65
2022/03/18 10:59:40;;;;;;;27.37;17.82;;;;;;;9.23;36.09;102722.52;2109847;84;29336;-71
2022/03/18 11:02:43;;;;;;;32.42;18.07;;;;;;;9.35;36.04;102722.91;2163492;82;31044;-72
2022/03/18 11:05:51;;;;;;;26.93;17.73;;;;;;;9.40;35.83;102716.63;2165305;82;33046;-70
2022/03/18 11:08:52;;;;;;;29.07;18.87;;;;;;;9.48;36.09;102721.06;2169150;81;29325;-65
2022/03/18 11:11:54;;;;;;;30.75;18.20;;;;;;;9.53;35.58;102719.23;2169584;82;28025;-60
2022/03/18 11:14:57;;;;;;;28.47;17.48;;;;;;;9.61;35.14;102717.84;2169844;82;28655;-70
2022/03/18 11:18:03;;;;;;;26.93;17.55;;;;;;;9.66;35.46;102722.30;2169858;82;31242;-73
2022/03/18 11:21:06;;;;;;;28.75;18.10;;;;;;;9.76;34.04;102723.55;2169393;81;34267;-72
2022/03/18 11:24:14;;;;;;;30.35;17.95;;;;;;;9.76;34.27;102716.43;2170218;82;30420;-73
2022/03/18 11:27:17;;;;;;;29.23;17.10;;;;;;;9.72;33.43;102720.02;2169831;82;28221;-70
2022/03/18 11:30:37;;;;;;;30.82;18.48;;;;;;;9.76;34.51;102716.43;2169432;82;29540;-71
2022/03/18 11:33:40;;;;;;;26.25;16.57;;;;;;;9.81;34.56;102716.39;2130356;83;32276;-71
2022/03/18 11:36:48;;;;;;;26.85;17.50;;;;;;;9.84;34.09;102715.91;2153138;82;34220;-72
2022/03/18 11:39:50;;;;;;;27.50;16.45;;;;;;;9.91;34.18;102719.42;2137069;83;30106;-73
2022/03/18 11:42:53;;;;;;;28.27;18.27;;;;;;;9.95;33.64;102718.94;2136253;83;28027;-72
2022/03/18 11:46:16;;;;;;;23.62;15.65;;;;;;;10.00;34.01;102726.50;2139873;83;29910;-77
2022/03/18 11:49:23;;;;;;;22.52;15.18;;;;;;;10.00;33.34;102727.40;2137075;83;31860;-72
2022/03/18 11:52:26;;;;;;;31.65;18.75;;;;;;;10.11;33.47;102730.43;2134708;83;33360;-73
2022/03/18 11:55:28;;;;;;;41.10;19.00;;;;;;;10.19;33.18;102726.78;2136807;83;30528;-75
2022/03/18 11:58:32;;;;;;;30.80;18.23;;;;;;;10.21;32.30;102727.22;2130066;83;27701;-70
2022/03/18 12:01:42;;;;;;;28.85;16.62;;;;;;;10.22;33.29;102719.62;2166476;81;29539;-71
2022/03/18 12:04:52;;;;;;;27.10;17.12;;;;;;;10.29;32.67;102708.84;2131321;83;31057;-75
2022/03/18 12:07:54;;;;;;;23.30;14.63;;;;;;;10.31;33.15;102708.81;2149734;82;33809;-72
2022/03/18 12:11:00;;;;;;;24.60;14.58;;;;;;;10.32;31.87;102706.57;2142695;82;30683;-71
2022/03/18 12:14:02;;;;;;;27.75;15.72;;;;;;;10.33;31.75;102711.93;2116438;83;27720;-68
2022/03/18 12:17:05;;;;;;;21.57;12.03;;;;;;;10.36;30.99;102711.44;2143157;83;29849;-67
2022/03/18 12:20:10;;;;;;;23.42;14.28;;;;;;;10.38;31.92;102709.23;2149836;82;32283;-71
2022/03/18 12:23:12;;;;;;;27.20;15.80;;;;;;;10.43;31.73;102707.84;2149334;82;34704;-71
2022/03/18 12:26:14;;;;;;;28.55;15.68;;;;;;;10.45;31.87;102713.61;2150512;82;29721;-70
2022/03/18 12:29:20;;;;;;;25.95;14.87;;;;;;;10.53;31.87;102712.19;2151459;82;27577;-71
2022/03/18 12:32:23;;;;;;;23.70;15.45;;;;;;;10.61;31.61;102704.06;2165023;82;28796;-62
2022/03/18 12:35:30;;;;;;;24.87;14.73;;;;;;;10.74;31.51;102713.77;2165660;82;31063;-66
2022/03/18 12:38:32;;;;;;;26.12;15.10;;;;;;;10.83;30.87;102710.10;2163701;82;32963;-70
2022/03/18 12:41:34;;;;;;;30.85;16.30;;;;;;;10.88;31.48;102713.59;2165363;82;30622;-70
2022/03/18 12:44:37;;;;;;;28.67;16.93;;;;;;;10.91;31.27;102714.91;2165410;82;27708;-68
2022/03/18 12:47:40;;;;;;;22.07;15.72;;;;;;;10.96;30.87;102705.92;2165367;82;30802;-72
2022/03/18 12:50:55;;;;;;;26.85;16.25;;;;;;;11.02;31.40;102701.36;2165221;82;32299;-73
2022/03/18 12:53:58;;;;;;;22.22;12.98;;;;;;;11.16;31.95;102697.61;2127455;83;32459;-68
2022/03/18 12:57:02;;;;;;;28.67;17.77;;;;;;;11.30;31.80;102698.30;2127020;83;29377;-66
2022/03/18 13:00:08;;;;;;;24.57;16.42;;;;;;;11.37;31.01;102696.41;2102760;83;28160;-66
2022/03/18 13:03:23;;;;;;;22.80;14.45;;;;;;;11.42;31.17;102703.08;2126792;83;28646;-69
2022/03/18 13:06:27;;;;;;;26.35;15.40;;;;;;;11.50;30.35;102689.08;2126949;83;31004;-69
2022/03/18 13:09:30;;;;;;;29.85;16.93;;;;;;;11.61;30.95;102683.55;2127468;82;34044;-69
2022/03/18 13:12:35;;;;;;;23.25;15.53;;;;;;;11.72;31.02;102697.69;2130661;83;30334;-70
2022/03/18 13:15:49;;;;;;;26.02;17.37;;;;;;;11.82;31.43;102690.38;2130844;83;27718;-61
2022/03/18 13:18:56;;;;;;;25.72;15.98;;;;;;;11.92;30.44;102702.73;2130180;83;29922;-76
2022/03/18 13:21:58;;;;;;;23.32;16.65;;;;;;;11.98;30.99;102700.42;2153479;82;31086;-77
2022/03/18 13:25:01;;;;;;;24.72;15.90;;;;;;;12.09;31.04;102691.75;2131249;83;32809;-69
2022/03/18 13:28:04;;;;;;;24.90;15.90;;;;;;;12.22;30.95;102696.89;2153479;82;29339;-68
2022/03/18 13:34:33;;;;;;;20.43;13.30;;;;;;;12.27;30.12;102694.55;2122064;82;29924;-71
2022/03/18 13:37:35;;;;;;;24.10;14.58;;;;;;;12.30;29.63;102697.66;2113416;84;31685;-62
2022/03/18 13:40:40;;;;;;;22.25;14.20;;;;;;;12.33;29.73;102697.58;2144621;82;34402;-67
2022/03/18 13:43:45;;;;;;;22.37;14.67;;;;;;;12.39;28.53;102704.67;2137022;83;29386;-68
2022/03/18 13:47:06;;;;;;;24.98;16.82;;;;;;;12.39;28.60;102701.98;2137134;83;27707;-73
2022/03/18 13:50:08;;;;;;;24.50;15.55;;;;;;;12.31;29.14;102707.50;2137147;83;28749;-68
2022/03/18 13:53:22;;;;;;;25.62;16.15;;;;;;;12.14;29.33;102712.72;2088407;83;32258;-74
2022/03/18 13:56:25;;;;;;;21.23;14.07;;;;;;;11.98;29.82;102709.39;2113583;83;33813;-74
2022/03/18 13:59:29;;;;;;;22.10;14.03;;;;;;;11.93;29.89;102704.50;2113570;83;29453;-70
2022/03/18 14:02:36;;;;;;;25.00;14.27;;;;;;;11.82;29.25;102706.05;2114106;83;27815;-83
2022/03/18 14:05:37;;;;;;;22.17;14.20;;;;;;;11.70;29.34;102703.09;2114003;82;28661;-68
2022/03/18 14:08:42;;;;;;;18.17;12.13;;;;;;;11.57;28.92;102703.30;2116680;84;32282;-70
2022/03/18 14:15:16;;;;;;;22.10;12.45;;;;;;;11.45;29.41;102709.72;2109440;84;30562;-72
2022/03/18 14:18:19;;;;;;;19.85;12.25;;;;;;;11.34;29.18;102708.53;2103962;84;27649;-70
2022/03/18 14:21:22;;;;;;;19.37;11.33;;;;;;;11.31;29.27;102715.30;2102735;83;28652;-66
2022/03/18 14:24:25;;;;;;;16.77;10.88;;;;;;;11.30;29.05;102707.70;2115171;82;31078;-65
2022/03/18 14:27:27;;;;;;;16.25;10.35;;;;;;;11.20;28.37;102710.08;2144655;82;33181;-71
2022/03/18 14:30:30;;;;;;;18.65;10.48;;;;;;;11.16;29.12;102713.27;2129234;83;30147;-67
2022/03/18 14:33:35;;;;;;;18.25;10.70;;;;;;;11.12;28.67;102718.23;2130642;83;27643;-71